Nearby METAR Reports

 

KSPW - Spencer, Iowa, USA
Distance from station: SSW 15mi, 24km
Updated: Fri, 10/23/2020 5:53am CDT
Overcast
Overcast
 Wind from NNW
Wind: NNW 20 mph , 31 km/h, Gust: 28 mph , 44 km/h
Temperature: 34°F , 1°C
Wind Chill: 23°F , -5°C
Dew Point: 30°F , -1°C
Humidity: 87%
Barometer: 30.21 inHg , 1023 hPa
Clouds: Overcast
Visibility: 10 miles , 16 km
Cloud details: Overcast 1000 ft
2020/10/23 10:53 KSPW 231053Z AUTO 34017G24KT 10SM OVC010 01/M01 A3021 RMK AO2 PK WND 34026/0954 SLP245 T00111011 $
KEST - Estherville, Iowa, USA
Distance from station: E 20mi, 32km
Updated: Fri, 10/23/2020 5:52am CDT
Overcast
Overcast
 Wind from N
Wind: N 21 mph , 33 km/h, Gust: 29 mph , 46 km/h
Temperature: 30°F , -1°C
Wind Chill: 17°F , -8°C
Dew Point: 30°F , -1°C
Humidity: 100%
Barometer: 30.19 inHg , 1022.4 hPa
Clouds: Overcast
Visibility: 10 miles , 16 km
Cloud details: Overcast 900 ft
2020/10/23 10:52 KEST 231052Z AUTO 35018G25KT 10SM OVC009 M01/M01 A3019 RMK AO2 PK WND 35026/1023 SLP240 T10061011
 
KMJQ - Jackson Muni, Minnesota, USA
Distance from station: NNE 20mi, 32km
Updated: Fri, 10/23/2020 6:15am CDT
Overcast
Overcast
 Wind from NNW
Wind: NNW 6 mph , 9 km/h
Temperature: 32°F , 0°C
Wind Chill: 26°F , -3°C
Dew Point: 30°F , -1°C
Humidity: 93%
Barometer: 30.22 inHg , 1023.4 hPa
Clouds: Overcast
Visibility: 4 miles , 6 km
Cloud details: Overcast 700 ft
2020/10/23 11:15 KMJQ 231115Z AUTO 33005KT 4SM OVC007 00/M01 A3022 RMK AO2 PWINO
KOTG - Worthington, Minnesota, USA
Distance from station: NW 27mi, 44km
Updated: Fri, 10/23/2020 5:56am CDT
Light snow, Overcast
Light snow, Overcast
 Wind from N
Wind: N 22 mph , 35 km/h, Gust: 28 mph , 44 km/h
Temperature: 30°F , -1°C
Wind Chill: 17°F , -8°C
Dew Point: 30°F , -1°C
Humidity: 100%
Barometer: 30.25 inHg , 1024.4 hPa
Summary: Light Snow
Clouds: Overcast
Visibility: 9 miles , 14 km
Cloud details: Overcast 800 ft
2020/10/23 10:56 KOTG 231056Z AUTO 35019G24KT 9SM -SN OVC008 M01/M01 A3025 RMK AO2 PK WND 36028/1010 PRESRR SLPNO P0000 T10111011 FZRANO
 
KSHL - Sheldon, Iowa, USA
Distance from station: WSW 35mi, 57km
Updated: Fri, 10/23/2020 6:35am CDT
Overcast
Overcast
 Wind from NNW
Wind: NNW 17 mph , 28 km/h, Gust: 25 mph , 41 km/h
Temperature: 32°F , 0°C
Wind Chill: 21°F , -6°C
Dew Point: 32°F , 0°C
Humidity: 100%
Barometer: 30.25 inHg , 1024.4 hPa
Clouds: Overcast
Visibility: 10 miles , 16 km
Cloud details: Overcast 1100 ft
2020/10/23 11:35 KSHL 231135Z AUTO 34015G22KT 10SM OVC011 M00/M00 A3025 RMK AO2
KMWM - Windom Muni Airp, Minnesota, USA
Distance from station: N 36mi, 58km
Updated: Fri, 10/23/2020 6:15am CDT
Light snow, Mostly cloudy
Light snow, Mostly cloudy
 Wind from calm
Wind: Calm
Temperature: 30°F , -1°C
Dew Point: 30°F , -1°C
Humidity: 100%
Barometer: 30.24 inHg , 1024 hPa
Summary: Light Snow
Clouds: Mostly cloudy
Visibility: 10 miles , 16 km
Cloud details: Mostly cloudy 1000 ft
2020/10/23 11:15 KMWM 231115Z AUTO 00000KT 10SM -SN BKN010 M01/M01 A3024 RMK AO2
 
KFRM - Fairmont Muni, Minnesota, USA
Distance from station: ENE 41mi, 66km
Updated: Fri, 10/23/2020 5:56am CDT
Light snow, Overcast
Light snow, Overcast
 Wind from NNW
Wind: NNW 18 mph , 30 km/h, Gust: 25 mph , 41 km/h
Temperature: 34°F , 1°C
Wind Chill: 23°F , -5°C
Dew Point: 30°F , -1°C
Humidity: 87%
Barometer: 30.18 inHg , 1022 hPa
Summary: Light Snow
Clouds: Overcast
Visibility: 9 miles , 14 km
Cloud details: Overcast 800 ft
2020/10/23 10:56 KFRM 231056Z AUTO 34016G22KT 9SM -SN OVC008 01/M01 A3018 RMK AO2 RAB37E45SNB45 CIG 006V011 SLP238 P0000 T00061006 FZRANO
KCKP - Cherokee, Iowa, USA
Distance from station: SSW 49mi, 79km
Updated: Fri, 10/23/2020 6:15am CDT
Overcast
Overcast
 Wind from NNW
Wind: NNW 14 mph , 22 km/h, Gust: 21 mph , 33 km/h
Temperature: 34°F , 1°C
Wind Chill: 25°F , -4°C
Dew Point: 32°F , 0°C
Humidity: 93%
Barometer: 30.26 inHg , 1024.7 hPa
Clouds: Overcast
Visibility: 10 miles , 16 km
Cloud details: Overcast 1300 ft
2020/10/23 11:15 KCKP 231115Z AUTO 34012G18KT 10SM OVC013 01/00 A3026 RMK AO2 T00080000
 
KAXA - Algona, Iowa, USA
Distance from station: ESE 49mi, 80km
Updated: Fri, 10/23/2020 6:35am CDT
Overcast
Overcast
 Wind from N
Wind: N 16 mph , 26 km/h, Gust: 25 mph , 41 km/h
Temperature: 34°F , 1°C
Wind Chill: 24°F , -4°C
Dew Point: 34°F , 1°C
Humidity: 100%
Barometer: 30.17 inHg , 1021.7 hPa
Clouds: Overcast
Visibility: 10 miles , 16 km
Cloud details: Overcast 800 ft
2020/10/23 11:35 KAXA 231135Z AUTO 35014G22KT 10SM OVC008 01/01 A3017 RMK A01